Ouargla, Algeria
Current Conditions -  °F | °C
As of 10:00 PM on Saturday 20 Dec 2014 (Local Time) from DAUU Reporting Station
Clear Clear  
Wind Chill: 50°   Ceiling: Unl
Heat Index: 50°   Visibility: 6mi
Dew Point: 41°   Wind: 0mph
Humidity: 71%   Direction: NA
Pressure: 30.42"   Gusts: NA
Location:  31.92°N, 5.4°E
Report Text: DAUU 202100Z 00000KT CAVOK 10/05 Q1030
Loading
Personal Weather Stations






























Interactive Weather Map New forecast layout! Learn more

10-Day Weather Forecast

Advertisements
Track Severe Weather on mobile